sensor_id;sensor_type;location;lat;lon;timestamp;noise_LAeq;noise_LA_min;noise_LA_max;noise_LA01;noise_LA95
37223;Laerm;28026;48.562;14.440;2024-01-11T00:01:27;37.38;33.44;40.33;;
37223;Laerm;28026;48.562;14.440;2024-01-11T00:03:58;37.52;32.93;44.45;;
37223;Laerm;28026;48.562;14.440;2024-01-11T00:06:29;37.57;30.89;40.62;;
37223;Laerm;28026;48.562;14.440;2024-01-11T00:09:00;37.69;32.93;43.49;;
37223;Laerm;28026;48.562;14.440;2024-01-11T00:11:31;41.12;33.90;55.71;;
37223;Laerm;28026;48.562;14.440;2024-01-11T00:14:01;38.56;34.31;42.47;;
37223;Laerm;28026;48.562;14.440;2024-01-11T00:16:32;37.89;32.93;42.93;;
37223;Laerm;28026;48.562;14.440;2024-01-11T00:19:03;43.99;34.69;59.98;;
37223;Laerm;28026;48.562;14.440;2024-01-11T00:21:34;41.89;35.36;48.94;;
37223;Laerm;28026;48.562;14.440;2024-01-11T00:24:05;38.63;33.90;43.54;;
37223;Laerm;28026;48.562;14.440;2024-01-11T00:26:36;38.61;33.97;44.39;;
37223;Laerm;28026;48.562;14.440;2024-01-11T00:29:07;37.88;33.90;43.86;;
37223;Laerm;28026;48.562;14.440;2024-01-11T00:31:38;37.62;32.93;40.13;;
37223;Laerm;28026;48.562;14.440;2024-01-11T00:34:09;37.63;33.44;40.53;;
37223;Laerm;28026;48.562;14.440;2024-01-11T00:36:40;37.53;32.35;40.80;;
37223;Laerm;28026;48.562;14.440;2024-01-11T00:39:11;37.68;32.93;42.09;;
37223;Laerm;28026;48.562;14.440;2024-01-11T00:41:42;37.91;33.90;40.80;;
37223;Laerm;28026;48.562;14.440;2024-01-11T00:44:13;38.05;34.31;41.46;;
37223;Laerm;28026;48.562;14.440;2024-01-11T00:46:44;37.92;33.44;40.71;;
37223;Laerm;28026;48.562;14.440;2024-01-11T00:49:14;37.86;32.93;54.67;;
37223;Laerm;28026;48.562;14.440;2024-01-11T00:51:45;37.87;33.44;47.44;;
37223;Laerm;28026;48.562;14.440;2024-01-11T00:54:18;38.06;34.31;52.62;;
37223;Laerm;28026;48.562;14.440;2024-01-11T00:56:48;38.32;33.90;51.83;;
37223;Laerm;28026;48.562;14.440;2024-01-11T00:59:19;37.78;32.93;49.79;;
37223;Laerm;28026;48.562;14.440;2024-01-11T01:01:50;37.79;32.93;42.53;;
37223;Laerm;28026;48.562;14.440;2024-01-11T01:04:21;37.59;30.89;43.90;;
37223;Laerm;28026;48.562;14.440;2024-01-11T01:06:52;37.58;33.44;44.27;;
37223;Laerm;28026;48.562;14.440;2024-01-11T01:09:23;37.74;33.90;41.53;;
37223;Laerm;28026;48.562;14.440;2024-01-11T01:11:54;39.57;33.90;54.65;;
37223;Laerm;28026;48.562;14.440;2024-01-11T01:14:25;39.85;32.93;66.47;;
37223;Laerm;28026;48.562;14.440;2024-01-11T01:16:56;37.37;31.68;44.62;;
37223;Laerm;28026;48.562;14.440;2024-01-11T01:19:27;37.48;31.68;42.16;;
37223;Laerm;28026;48.562;14.440;2024-01-11T01:21:58;37.61;31.68;46.50;;
37223;Laerm;28026;48.562;14.440;2024-01-11T01:24:30;38.11;32.93;46.25;;
37223;Laerm;28026;48.562;14.440;2024-01-11T01:27:02;39.24;32.93;60.65;;
37223;Laerm;28026;48.562;14.440;2024-01-11T01:29:33;37.65;32.93;41.26;;
37223;Laerm;28026;48.562;14.440;2024-01-11T01:32:04;37.55;33.44;41.61;;
37223;Laerm;28026;48.562;14.440;2024-01-11T01:34:35;41.68;33.44;50.90;;
37223;Laerm;28026;48.562;14.440;2024-01-11T01:37:06;37.85;32.35;42.22;;
37223;Laerm;28026;48.562;14.440;2024-01-11T01:39:40;37.49;32.35;40.53;;
37223;Laerm;28026;48.562;14.440;2024-01-11T01:42:11;37.53;32.35;41.53;;
37223;Laerm;28026;48.562;14.440;2024-01-11T01:44:42;37.42;32.35;46.48;;
37223;Laerm;28026;48.562;14.440;2024-01-11T01:47:13;37.18;32.35;40.03;;
37223;Laerm;28026;48.562;14.440;2024-01-11T01:49:45;37.24;32.35;40.13;;
37223;Laerm;28026;48.562;14.440;2024-01-11T01:52:20;37.27;32.93;40.03;;
37223;Laerm;28026;48.562;14.440;2024-01-11T01:54:52;37.43;32.93;40.98;;
37223;Laerm;28026;48.562;14.440;2024-01-11T01:57:24;37.37;32.93;42.22;;
37223;Laerm;28026;48.562;14.440;2024-01-11T01:59:56;37.35;32.35;40.89;;
37223;Laerm;28026;48.562;14.440;2024-01-11T02:02:30;37.98;32.35;64.78;;
37223;Laerm;28026;48.562;14.440;2024-01-11T02:05:04;37.57;32.58;48.18;;
37223;Laerm;28026;48.562;14.440;2024-01-11T02:07:36;37.67;33.44;40.62;;
37223;Laerm;28026;48.562;14.440;2024-01-11T02:10:10;37.71;32.93;45.51;;
37223;Laerm;28026;48.562;14.440;2024-01-11T02:12:41;37.83;32.93;41.68;;
37223;Laerm;28026;48.562;14.440;2024-01-11T02:15:12;37.52;32.93;40.43;;
37223;Laerm;28026;48.562;14.440;2024-01-11T02:17:43;37.55;33.44;40.80;;
37223;Laerm;28026;48.562;14.440;2024-01-11T02:20:14;41.03;32.93;46.30;;
37223;Laerm;28026;48.562;14.440;2024-01-11T02:22:53;37.97;32.35;43.09;;
37223;Laerm;28026;48.562;14.440;2024-01-11T02:25:26;37.48;33.44;41.75;;
37223;Laerm;28026;48.562;14.440;2024-01-11T02:27:57;37.27;31.68;46.40;;
37223;Laerm;28026;48.562;14.440;2024-01-11T02:30:28;40.38;34.31;47.30;;
37223;Laerm;28026;48.562;14.440;2024-01-11T02:33:00;37.87;33.44;45.11;;
37223;Laerm;28026;48.562;14.440;2024-01-11T02:35:33;40.34;33.97;44.58;;
37223;Laerm;28026;48.562;14.440;2024-01-11T02:38:06;39.13;32.93;45.30;;
37223;Laerm;28026;48.562;14.440;2024-01-11T02:40:39;41.06;33.90;47.10;;
37223;Laerm;28026;48.562;14.440;2024-01-11T02:43:11;40.84;34.69;46.13;;
37223;Laerm;28026;48.562;14.440;2024-01-11T02:45:42;39.29;33.44;44.83;;
37223;Laerm;28026;48.562;14.440;2024-01-11T02:48:12;37.71;32.93;44.27;;
37223;Laerm;28026;48.562;14.440;2024-01-11T02:50:43;37.63;32.93;42.16;;
37223;Laerm;28026;48.562;14.440;2024-01-11T02:53:14;37.75;33.44;40.33;;
37223;Laerm;28026;48.562;14.440;2024-01-11T02:55:45;37.67;32.93;41.14;;
37223;Laerm;28026;48.562;14.440;2024-01-11T02:58:17;37.68;32.00;41.53;;
37223;Laerm;28026;48.562;14.440;2024-01-11T03:00:47;39.49;33.44;45.77;;
37223;Laerm;28026;48.562;14.440;2024-01-11T03:03:18;38.90;33.44;43.77;;
37223;Laerm;28026;48.562;14.440;2024-01-11T03:05:49;37.70;33.90;40.63;;
37223;Laerm;28026;48.562;14.440;2024-01-11T03:08:20;40.73;33.90;45.75;;
37223;Laerm;28026;48.562;14.440;2024-01-11T03:10:51;41.09;35.04;45.80;;
37223;Laerm;28026;48.562;14.440;2024-01-11T03:13:23;39.54;33.90;46.82;;
37223;Laerm;28026;48.562;14.440;2024-01-11T03:15:54;38.84;34.69;45.14;;
37223;Laerm;28026;48.562;14.440;2024-01-11T03:18:25;41.03;34.69;45.48;;
37223;Laerm;28026;48.562;14.440;2024-01-11T03:20:55;37.81;31.68;40.62;;
37223;Laerm;28026;48.562;14.440;2024-01-11T03:23:26;37.89;32.35;42.22;;
37223;Laerm;28026;48.562;14.440;2024-01-11T03:25:57;38.44;33.90;42.29;;
37223;Laerm;28026;48.562;14.440;2024-01-11T03:28:28;37.80;32.35;40.62;;
37223;Laerm;28026;48.562;14.440;2024-01-11T03:30:59;38.06;33.90;41.46;;
37223;Laerm;28026;48.562;14.440;2024-01-11T03:33:30;38.02;32.93;41.61;;
37223;Laerm;28026;48.562;14.440;2024-01-11T03:36:11;38.38;32.35;49.88;;
37223;Laerm;28026;48.562;14.440;2024-01-11T03:38:42;37.88;32.93;41.22;;
37223;Laerm;28026;48.562;14.440;2024-01-11T03:41:13;37.97;33.90;41.53;;
37223;Laerm;28026;48.562;14.440;2024-01-11T03:43:43;41.34;34.31;49.57;;
37223;Laerm;28026;48.562;14.440;2024-01-11T03:46:14;38.33;33.90;42.59;;
37223;Laerm;28026;48.562;14.440;2024-01-11T03:48:45;38.70;33.44;42.98;;
37223;Laerm;28026;48.562;14.440;2024-01-11T03:51:16;38.36;34.31;42.09;;
37223;Laerm;28026;48.562;14.440;2024-01-11T03:53:47;38.10;33.90;42.59;;
37223;Laerm;28026;48.562;14.440;2024-01-11T03:56:18;40.52;33.90;53.36;;
37223;Laerm;28026;48.562;14.440;2024-01-11T03:58:49;40.44;35.04;46.18;;
37223;Laerm;28026;48.562;14.440;2024-01-11T04:01:20;38.95;34.31;44.11;;
37223;Laerm;28026;48.562;14.440;2024-01-11T04:03:51;39.98;34.31;47.48;;
37223;Laerm;28026;48.562;14.440;2024-01-11T04:06:22;38.70;33.90;53.01;;
37223;Laerm;28026;48.562;14.440;2024-01-11T04:08:54;44.05;35.04;55.43;;
37223;Laerm;28026;48.562;14.440;2024-01-11T04:11:29;43.06;36.20;53.17;;
37223;Laerm;28026;48.562;14.440;2024-01-11T04:14:00;43.24;37.12;51.11;;
37223;Laerm;28026;48.562;14.440;2024-01-11T04:16:31;40.62;34.31;50.49;;
37223;Laerm;28026;48.562;14.440;2024-01-11T04:19:02;41.88;36.69;51.71;;
37223;Laerm;28026;48.562;14.440;2024-01-11T04:21:35;42.04;35.59;50.18;;
37223;Laerm;28026;48.562;14.440;2024-01-11T04:24:06;39.57;33.90;44.90;;
37223;Laerm;28026;48.562;14.440;2024-01-11T04:26:37;40.98;32.93;46.18;;
37223;Laerm;28026;48.562;14.440;2024-01-11T04:29:08;42.83;34.69;49.60;;
37223;Laerm;28026;48.562;14.440;2024-01-11T04:31:39;39.57;33.90;45.33;;
37223;Laerm;28026;48.562;14.440;2024-01-11T04:34:10;41.75;35.94;48.08;;
37223;Laerm;28026;48.562;14.440;2024-01-11T04:36:41;42.37;36.69;47.24;;
37223;Laerm;28026;48.562;14.440;2024-01-11T04:39:12;42.24;35.94;47.80;;
37223;Laerm;28026;48.562;14.440;2024-01-11T04:41:43;42.72;37.12;45.94;;
37223;Laerm;28026;48.562;14.440;2024-01-11T04:44:14;40.57;33.90;44.90;;
37223;Laerm;28026;48.562;14.440;2024-01-11T04:46:45;38.28;33.44;40.98;;
37223;Laerm;28026;48.562;14.440;2024-01-11T04:49:16;42.93;35.04;47.91;;
37223;Laerm;28026;48.562;14.440;2024-01-11T04:51:46;40.18;34.69;52.26;;
37223;Laerm;28026;48.562;14.440;2024-01-11T04:54:17;39.41;35.04;43.09;;
37223;Laerm;28026;48.562;14.440;2024-01-11T04:56:48;42.52;36.69;52.83;;
37223;Laerm;28026;48.562;14.440;2024-01-11T04:59:20;39.30;35.04;44.15;;
37223;Laerm;28026;48.562;14.440;2024-01-11T05:01:51;42.90;35.66;47.72;;
37223;Laerm;28026;48.562;14.440;2024-01-11T05:04:22;40.17;35.59;44.39;;
37223;Laerm;28026;48.562;14.440;2024-01-11T05:06:52;38.71;34.69;46.73;;
37223;Laerm;28026;48.562;14.440;2024-01-11T05:09:23;38.95;33.90;44.03;;
37223;Laerm;28026;48.562;14.440;2024-01-11T05:11:54;44.34;37.70;53.25;;
37223;Laerm;28026;48.562;14.440;2024-01-11T05:14:25;42.00;35.94;46.07;;
37223;Laerm;28026;48.562;14.440;2024-01-11T05:16:56;39.84;35.66;58.12;;
37223;Laerm;28026;48.562;14.440;2024-01-11T05:19:27;39.60;35.31;48.32;;
37223;Laerm;28026;48.562;14.440;2024-01-11T05:21:58;38.99;33.90;48.39;;
37223;Laerm;28026;48.562;14.440;2024-01-11T05:24:29;40.64;35.66;49.98;;
37223;Laerm;28026;48.562;14.440;2024-01-11T05:26:59;41.91;36.91;46.62;;
37223;Laerm;28026;48.562;14.440;2024-01-11T05:29:30;40.59;35.94;45.07;;
37223;Laerm;28026;48.562;14.440;2024-01-11T05:32:02;40.62;35.66;47.91;;
37223;Laerm;28026;48.562;14.440;2024-01-11T05:34:33;39.63;35.66;42.41;;
37223;Laerm;28026;48.562;14.440;2024-01-11T05:37:04;42.53;35.36;50.50;;
37223;Laerm;28026;48.562;14.440;2024-01-11T05:39:35;40.23;35.04;44.27;;
37223;Laerm;28026;48.562;14.440;2024-01-11T05:42:06;40.97;36.45;60.24;;
37223;Laerm;28026;48.562;14.440;2024-01-11T05:44:37;42.04;36.69;46.66;;
37223;Laerm;28026;48.562;14.440;2024-01-11T05:47:08;40.38;35.36;50.17;;
37223;Laerm;28026;48.562;14.440;2024-01-11T05:49:40;41.53;35.66;47.02;;
37223;Laerm;28026;48.562;14.440;2024-01-11T05:52:11;41.24;36.69;55.75;;
37223;Laerm;28026;48.562;14.440;2024-01-11T05:54:42;43.59;37.32;54.85;;
37223;Laerm;28026;48.562;14.440;2024-01-11T05:57:13;41.80;36.69;49.25;;
37223;Laerm;28026;48.562;14.440;2024-01-11T05:59:45;40.40;36.45;43.68;;
37223;Laerm;28026;48.562;14.440;2024-01-11T06:02:16;40.25;36.69;45.30;;
37223;Laerm;28026;48.562;14.440;2024-01-11T06:04:47;40.03;36.69;43.19;;
37223;Laerm;28026;48.562;14.440;2024-01-11T06:07:18;40.43;36.34;44.47;;
37223;Laerm;28026;48.562;14.440;2024-01-11T06:09:49;40.84;36.69;48.67;;
37223;Laerm;28026;48.562;14.440;2024-01-11T06:12:20;42.89;37.52;49.65;;
37223;Laerm;28026;48.562;14.440;2024-01-11T06:14:51;42.94;38.67;49.63;;
37223;Laerm;28026;48.562;14.440;2024-01-11T06:17:22;42.33;36.69;54.17;;
37223;Laerm;28026;48.562;14.440;2024-01-11T06:19:53;41.82;37.17;45.23;;
37223;Laerm;28026;48.562;14.440;2024-01-11T06:22:24;41.10;36.69;44.54;;
37223;Laerm;28026;48.562;14.440;2024-01-11T06:24:55;40.82;36.69;44.31;;
37223;Laerm;28026;48.562;14.440;2024-01-11T06:27:26;40.93;37.32;45.33;;
37223;Laerm;28026;48.562;14.440;2024-01-11T06:29:57;42.13;37.88;48.95;;
37223;Laerm;28026;48.562;14.440;2024-01-11T06:32:27;41.14;36.69;44.54;;
37223;Laerm;28026;48.562;14.440;2024-01-11T06:34:58;40.56;36.69;53.57;;
37223;Laerm;28026;48.562;14.440;2024-01-11T06:37:29;40.35;36.56;47.06;;
37223;Laerm;28026;48.562;14.440;2024-01-11T06:40:01;41.68;36.91;49.25;;
37223;Laerm;28026;48.562;14.440;2024-01-11T06:42:31;40.08;36.20;44.15;;
37223;Laerm;28026;48.562;14.440;2024-01-11T06:45:03;41.03;37.17;44.65;;
37223;Laerm;28026;48.562;14.440;2024-01-11T06:47:34;40.58;36.69;50.94;;
37223;Laerm;28026;48.562;14.440;2024-01-11T06:50:06;41.78;37.12;51.67;;
37223;Laerm;28026;48.562;14.440;2024-01-11T06:52:37;40.61;36.45;44.62;;
37223;Laerm;28026;48.562;14.440;2024-01-11T06:55:08;40.51;36.20;45.99;;
37223;Laerm;28026;48.562;14.440;2024-01-11T06:57:39;42.70;37.70;50.52;;
37223;Laerm;28026;48.562;14.440;2024-01-11T07:00:10;40.67;36.20;45.14;;
37223;Laerm;28026;48.562;14.440;2024-01-11T07:02:41;41.32;37.52;47.14;;
37223;Laerm;28026;48.562;14.440;2024-01-11T07:05:12;42.33;37.53;53.64;;
37223;Laerm;28026;48.562;14.440;2024-01-11T07:07:43;42.10;37.88;49.04;;
37223;Laerm;28026;48.562;14.440;2024-01-11T07:10:14;42.07;37.12;55.12;;
37223;Laerm;28026;48.562;14.440;2024-01-11T07:12:46;44.50;37.12;57.17;;
37223;Laerm;28026;48.562;14.440;2024-01-11T07:15:18;40.35;35.36;43.99;;
37223;Laerm;28026;48.562;14.440;2024-01-11T07:17:49;40.05;36.45;44.76;;
37223;Laerm;28026;48.562;14.440;2024-01-11T07:20:20;39.79;35.66;43.49;;
37223;Laerm;28026;48.562;14.440;2024-01-11T07:22:51;40.33;35.66;47.26;;
37223;Laerm;28026;48.562;14.440;2024-01-11T07:25:22;39.73;35.36;51.35;;
37223;Laerm;28026;48.562;14.440;2024-01-11T07:27:52;39.52;35.36;45.80;;
37223;Laerm;28026;48.562;14.440;2024-01-11T07:30:23;40.84;36.91;49.42;;
37223;Laerm;28026;48.562;14.440;2024-01-11T07:32:54;41.24;36.91;47.54;;
37223;Laerm;28026;48.562;14.440;2024-01-11T07:35:25;40.03;36.10;46.73;;
37223;Laerm;28026;48.562;14.440;2024-01-11T07:37:56;40.02;36.69;52.43;;
37223;Laerm;28026;48.562;14.440;2024-01-11T07:40:27;40.29;36.69;45.51;;
37223;Laerm;28026;48.562;14.440;2024-01-11T07:42:59;39.80;35.66;52.59;;
37223;Laerm;28026;48.562;14.440;2024-01-11T07:45:30;40.43;36.91;49.72;;
37223;Laerm;28026;48.562;14.440;2024-01-11T07:48:01;41.61;37.12;54.28;;
37223;Laerm;28026;48.562;14.440;2024-01-11T07:50:34;40.70;37.12;46.28;;
37223;Laerm;28026;48.562;14.440;2024-01-11T07:53:06;40.28;36.45;45.17;;
37223;Laerm;28026;48.562;14.440;2024-01-11T07:55:36;41.54;37.17;49.10;;
37223;Laerm;28026;48.562;14.440;2024-01-11T07:58:09;42.77;38.81;45.83;;
37223;Laerm;28026;48.562;14.440;2024-01-11T08:00:41;40.78;37.32;46.50;;
37223;Laerm;28026;48.562;14.440;2024-01-11T08:03:12;42.75;36.20;51.47;;
37223;Laerm;28026;48.562;14.440;2024-01-11T08:05:42;41.50;37.52;45.14;;
37223;Laerm;28026;48.562;14.440;2024-01-11T08:08:14;40.72;36.20;45.14;;
37223;Laerm;28026;48.562;14.440;2024-01-11T08:10:45;40.44;35.66;47.67;;
37223;Laerm;28026;48.562;14.440;2024-01-11T08:13:16;41.96;36.69;45.42;;
37223;Laerm;28026;48.562;14.440;2024-01-11T08:15:48;42.78;38.05;45.86;;
37223;Laerm;28026;48.562;14.440;2024-01-11T08:18:19;42.96;37.70;50.70;;
37223;Laerm;28026;48.562;14.440;2024-01-11T08:20:50;42.89;38.21;45.42;;
37223;Laerm;28026;48.562;14.440;2024-01-11T08:23:21;40.85;37.32;45.04;;
37223;Laerm;28026;48.562;14.440;2024-01-11T08:25:52;39.90;35.94;45.86;;
37223;Laerm;28026;48.562;14.440;2024-01-11T08:28:26;42.37;35.04;58.68;;
37223;Laerm;28026;48.562;14.440;2024-01-11T08:30:56;41.91;38.21;46.59;;
37223;Laerm;28026;48.562;14.440;2024-01-11T08:33:27;40.30;36.20;52.96;;
37223;Laerm;28026;48.562;14.440;2024-01-11T08:35:59;40.60;35.04;53.16;;
37223;Laerm;28026;48.562;14.440;2024-01-11T08:38:30;46.98;35.66;72.21;;
37223;Laerm;28026;48.562;14.440;2024-01-11T08:41:01;40.43;35.66;57.48;;
37223;Laerm;28026;48.562;14.440;2024-01-11T08:43:33;44.56;35.36;69.71;;
37223;Laerm;28026;48.562;14.440;2024-01-11T08:46:04;43.38;36.20;70.42;;
37223;Laerm;28026;48.562;14.440;2024-01-11T08:48:35;39.49;35.94;44.15;;
37223;Laerm;28026;48.562;14.440;2024-01-11T08:51:06;39.29;34.69;43.99;;
37223;Laerm;28026;48.562;14.440;2024-01-11T08:53:37;39.57;35.04;43.77;;
37223;Laerm;28026;48.562;14.440;2024-01-11T08:56:08;40.85;36.91;52.19;;
37223;Laerm;28026;48.562;14.440;2024-01-11T08:58:40;40.14;35.01;46.66;;
37223;Laerm;28026;48.562;14.440;2024-01-11T09:01:11;40.15;35.66;43.81;;
37223;Laerm;28026;48.562;14.440;2024-01-11T09:03:42;41.19;36.91;44.19;;
37223;Laerm;28026;48.562;14.440;2024-01-11T09:06:13;40.30;35.94;44.19;;
37223;Laerm;28026;48.562;14.440;2024-01-11T09:08:44;41.05;35.04;44.80;;
37223;Laerm;28026;48.562;14.440;2024-01-11T09:11:17;44.13;35.36;56.47;;
37223;Laerm;28026;48.562;14.440;2024-01-11T09:13:47;42.20;37.70;49.07;;
37223;Laerm;28026;48.562;14.440;2024-01-11T09:16:18;41.79;36.91;47.54;;
37223;Laerm;28026;48.562;14.440;2024-01-11T09:18:49;41.36;37.52;44.83;;
37223;Laerm;28026;48.562;14.440;2024-01-11T09:21:20;41.71;37.88;57.18;;
37223;Laerm;28026;48.562;14.440;2024-01-11T09:23:51;41.23;37.70;48.61;;
37223;Laerm;28026;48.562;14.440;2024-01-11T09:26:22;40.68;36.69;57.01;;
37223;Laerm;28026;48.562;14.440;2024-01-11T09:28:53;41.02;36.45;55.79;;
37223;Laerm;28026;48.562;14.440;2024-01-11T09:31:24;40.25;35.66;54.99;;
37223;Laerm;28026;48.562;14.440;2024-01-11T09:33:54;40.30;36.91;53.65;;
37223;Laerm;28026;48.562;14.440;2024-01-11T09:36:27;40.61;36.69;53.65;;
37223;Laerm;28026;48.562;14.440;2024-01-11T09:38:58;40.56;36.45;48.45;;
37223;Laerm;28026;48.562;14.440;2024-01-11T09:41:31;40.86;37.32;49.51;;
37223;Laerm;28026;48.562;14.440;2024-01-11T09:44:05;42.74;37.32;60.82;;
37223;Laerm;28026;48.562;14.440;2024-01-11T09:46:36;41.88;37.70;49.67;;
37223;Laerm;28026;48.562;14.440;2024-01-11T09:49:10;43.79;36.69;65.71;;
37223;Laerm;28026;48.562;14.440;2024-01-11T09:51:42;40.74;35.94;53.08;;
37223;Laerm;28026;48.562;14.440;2024-01-11T09:54:19;41.92;37.12;48.66;;
37223;Laerm;28026;48.562;14.440;2024-01-11T09:56:54;41.58;36.91;50.27;;
37223;Laerm;28026;48.562;14.440;2024-01-11T09:59:30;42.94;37.32;50.56;;
37223;Laerm;28026;48.562;14.440;2024-01-11T10:02:02;40.92;36.91;51.29;;
37223;Laerm;28026;48.562;14.440;2024-01-11T10:04:34;42.28;38.52;60.06;;
37223;Laerm;28026;48.562;14.440;2024-01-11T10:07:06;45.48;38.05;55.97;;
37223;Laerm;28026;48.562;14.440;2024-01-11T10:09:37;42.61;37.52;62.09;;
37223;Laerm;28026;48.562;14.440;2024-01-11T10:12:08;43.15;36.69;54.62;;
37223;Laerm;28026;48.562;14.440;2024-01-11T10:14:40;41.63;36.20;54.93;;
37223;Laerm;28026;48.562;14.440;2024-01-11T10:17:10;44.84;39.70;55.27;;
37223;Laerm;28026;48.562;14.440;2024-01-11T10:19:42;42.66;36.20;54.07;;
37223;Laerm;28026;48.562;14.440;2024-01-11T10:22:13;46.50;38.05;58.54;;
37223;Laerm;28026;48.562;14.440;2024-01-11T10:24:47;41.35;36.77;51.61;;
37223;Laerm;28026;48.562;14.440;2024-01-11T10:27:18;42.10;37.32;45.94;;
37223;Laerm;28026;48.562;14.440;2024-01-11T10:29:52;40.71;37.32;45.77;;
37223;Laerm;28026;48.562;14.440;2024-01-11T10:32:28;41.11;36.69;58.71;;
37223;Laerm;28026;48.562;14.440;2024-01-11T10:34:59;41.60;36.69;44.80;;
37223;Laerm;28026;48.562;14.440;2024-01-11T10:37:32;41.58;38.37;45.45;;
37223;Laerm;28026;48.562;14.440;2024-01-11T10:40:08;41.25;37.17;52.76;;
37223;Laerm;28026;48.562;14.440;2024-01-11T10:42:49;44.20;38.67;57.36;;
37223;Laerm;28026;48.562;14.440;2024-01-11T10:45:22;45.64;39.34;59.69;;
37223;Laerm;28026;48.562;14.440;2024-01-11T10:48:02;44.16;38.37;72.34;;
37223;Laerm;28026;48.562;14.440;2024-01-11T10:50:44;43.37;40.23;47.08;;
37223;Laerm;28026;48.562;14.440;2024-01-11T10:53:45;41.71;35.66;49.70;;
37223;Laerm;28026;48.562;14.440;2024-01-11T10:56:17;40.59;36.20;47.44;;
37223;Laerm;28026;48.562;14.440;2024-01-11T10:58:50;40.04;35.94;44.47;;
37223;Laerm;28026;48.562;14.440;2024-01-11T11:01:24;42.98;36.69;54.81;;
37223;Laerm;28026;48.562;14.440;2024-01-11T11:03:56;41.95;36.45;48.63;;
37223;Laerm;28026;48.562;14.440;2024-01-11T11:06:29;40.17;35.66;52.88;;
37223;Laerm;28026;48.562;14.440;2024-01-11T11:09:02;40.01;35.36;53.73;;
37223;Laerm;28026;48.562;14.440;2024-01-11T11:11:35;42.52;36.45;58.64;;
37223;Laerm;28026;48.562;14.440;2024-01-11T11:14:09;41.13;35.66;56.39;;
37223;Laerm;28026;48.562;14.440;2024-01-11T11:16:40;40.98;35.94;56.07;;
37223;Laerm;28026;48.562;14.440;2024-01-11T11:19:13;41.62;36.45;56.08;;
37223;Laerm;28026;48.562;14.440;2024-01-11T11:21:47;40.52;34.69;56.94;;
37223;Laerm;28026;48.562;14.440;2024-01-11T11:24:19;41.45;34.69;58.47;;
37223;Laerm;28026;48.562;14.440;2024-01-11T11:26:50;41.11;34.69;58.13;;
37223;Laerm;28026;48.562;14.440;2024-01-11T11:29:21;40.88;35.04;57.84;;
37223;Laerm;28026;48.562;14.440;2024-01-11T11:31:52;40.72;35.04;55.83;;
37223;Laerm;28026;48.562;14.440;2024-01-11T11:34:41;41.96;33.90;58.29;;
37223;Laerm;28026;48.562;14.440;2024-01-11T11:37:23;41.97;32.93;57.64;;
37223;Laerm;28026;48.562;14.440;2024-01-11T11:39:54;43.51;36.20;60.04;;
37223;Laerm;28026;48.562;14.440;2024-01-11T11:42:26;41.62;34.69;56.97;;
37223;Laerm;28026;48.562;14.440;2024-01-11T11:44:57;41.29;32.93;59.71;;
37223;Laerm;28026;48.562;14.440;2024-01-11T11:47:36;41.13;33.90;58.96;;
37223;Laerm;28026;48.562;14.440;2024-01-11T11:50:11;41.91;35.04;58.81;;
37223;Laerm;28026;48.562;14.440;2024-01-11T11:52:42;40.93;34.31;57.97;;
37223;Laerm;28026;48.562;14.440;2024-01-11T11:55:14;41.69;35.94;59.51;;
37223;Laerm;28026;48.562;14.440;2024-01-11T11:57:47;42.57;35.94;58.87;;
37223;Laerm;28026;48.562;14.440;2024-01-11T12:00:20;42.06;34.31;58.32;;
37223;Laerm;28026;48.562;14.440;2024-01-11T12:02:52;42.21;34.69;58.24;;
37223;Laerm;28026;48.562;14.440;2024-01-11T12:05:23;42.61;34.31;58.22;;
37223;Laerm;28026;48.562;14.440;2024-01-11T12:07:54;42.54;34.69;60.10;;
37223;Laerm;28026;48.562;14.440;2024-01-11T12:10:26;43.15;36.45;57.65;;
37223;Laerm;28026;48.562;14.440;2024-01-11T12:12:57;43.07;35.94;57.63;;
37223;Laerm;28026;48.562;14.440;2024-01-11T12:15:28;42.38;35.36;57.38;;
37223;Laerm;28026;48.562;14.440;2024-01-11T12:17:59;43.92;36.69;60.05;;
37223;Laerm;28026;48.562;14.440;2024-01-11T12:20:30;43.51;35.36;59.98;;
37223;Laerm;28026;48.562;14.440;2024-01-11T12:23:02;43.40;35.36;60.33;;
37223;Laerm;28026;48.562;14.440;2024-01-11T12:25:34;45.42;35.04;64.49;;
37223;Laerm;28026;48.562;14.440;2024-01-11T12:28:07;46.34;35.36;64.15;;
37223;Laerm;28026;48.562;14.440;2024-01-11T12:30:38;46.55;35.66;63.52;;
37223;Laerm;28026;48.562;14.440;2024-01-11T12:33:10;46.55;34.31;64.11;;
37223;Laerm;28026;48.562;14.440;2024-01-11T12:35:41;46.87;35.36;64.36;;
37223;Laerm;28026;48.562;14.440;2024-01-11T12:38:12;47.40;37.52;64.34;;
37223;Laerm;28026;48.562;14.440;2024-01-11T12:40:45;47.57;37.32;64.52;;
37223;Laerm;28026;48.562;14.440;2024-01-11T12:43:17;48.33;36.91;64.29;;
37223;Laerm;28026;48.562;14.440;2024-01-11T12:45:48;48.52;36.10;64.33;;
37223;Laerm;28026;48.562;14.440;2024-01-11T12:48:20;48.57;36.20;63.04;;
37223;Laerm;28026;48.562;14.440;2024-01-11T12:50:51;48.48;35.36;63.28;;
37223;Laerm;28026;48.562;14.440;2024-01-11T12:53:24;48.63;34.31;62.10;;
37223;Laerm;28026;48.562;14.440;2024-01-11T12:56:07;48.14;34.31;61.86;;
37223;Laerm;28026;48.562;14.440;2024-01-11T12:58:42;47.95;35.04;62.63;;
37223;Laerm;28026;48.562;14.440;2024-01-11T13:01:13;51.80;34.31;62.97;;
37223;Laerm;28026;48.562;14.440;2024-01-11T13:03:47;49.60;35.94;61.72;;
37223;Laerm;28026;48.562;14.440;2024-01-11T13:06:18;48.55;35.31;62.02;;
37223;Laerm;28026;48.562;14.440;2024-01-11T13:08:50;47.94;34.69;62.59;;
37223;Laerm;28026;48.562;14.440;2024-01-11T13:11:21;48.18;33.90;61.08;;
37223;Laerm;28026;48.562;14.440;2024-01-11T13:13:54;47.85;35.04;61.35;;
37223;Laerm;28026;48.562;14.440;2024-01-11T13:16:25;48.50;33.90;61.38;;
37223;Laerm;28026;48.562;14.440;2024-01-11T13:18:56;48.31;36.20;60.88;;
37223;Laerm;28026;48.562;14.440;2024-01-11T13:21:27;48.36;35.36;60.90;;
37223;Laerm;28026;48.562;14.440;2024-01-11T13:23:57;48.60;32.93;61.39;;
37223;Laerm;28026;48.562;14.440;2024-01-11T13:26:28;48.48;36.91;61.88;;
37223;Laerm;28026;48.562;14.440;2024-01-11T13:28:59;47.86;33.90;61.49;;
37223;Laerm;28026;48.562;14.440;2024-01-11T13:31:31;47.78;35.04;63.73;;
37223;Laerm;28026;48.562;14.440;2024-01-11T13:34:02;47.50;35.31;62.82;;
37223;Laerm;28026;48.562;14.440;2024-01-11T13:36:34;48.18;35.04;62.07;;
37223;Laerm;28026;48.562;14.440;2024-01-11T13:39:05;48.00;35.04;62.33;;
37223;Laerm;28026;48.562;14.440;2024-01-11T13:41:39;48.62;34.69;63.25;;
37223;Laerm;28026;48.562;14.440;2024-01-11T13:44:11;47.93;33.44;61.61;;
37223;Laerm;28026;48.562;14.440;2024-01-11T13:46:42;47.92;35.66;63.24;;
37223;Laerm;28026;48.562;14.440;2024-01-11T13:49:14;47.63;35.66;61.82;;
37223;Laerm;28026;48.562;14.440;2024-01-11T13:51:47;46.87;35.04;61.20;;
37223;Laerm;28026;48.562;14.440;2024-01-11T13:54:18;47.59;36.20;61.04;;
37223;Laerm;28026;48.562;14.440;2024-01-11T13:56:50;47.37;35.36;62.91;;